createdAt,value
2023-05-25T00:01:28.835Z,22.75
2023-05-25T00:03:56.435Z,25.70
2023-05-25T00:06:33.502Z,25.67
2023-05-25T00:09:01.029Z,31.17
2023-05-25T00:11:28.960Z,30.38
2023-05-25T00:13:56.446Z,25.40
2023-05-25T00:16:26.660Z,22.95
2023-05-25T00:18:57.693Z,27.55
2023-05-25T00:21:27.812Z,19.33
2023-05-25T00:23:55.457Z,26.17
2023-05-25T00:26:28.558Z,25.35
2023-05-25T00:31:24.441Z,27.15
2023-05-25T00:33:54.210Z,24.45
2023-05-25T00:36:21.600Z,25.60
2023-05-25T00:38:51.297Z,29.35
2023-05-25T00:41:19.369Z,32.15
2023-05-25T00:43:49.487Z,24.67
2023-05-25T00:46:17.253Z,18.58
2023-05-25T00:48:44.734Z,22.48
2023-05-25T00:51:17.121Z,28.98
2023-05-25T00:53:47.248Z,25.88
2023-05-25T00:56:29.204Z,21.25
2023-05-25T00:58:57.286Z,29.15
2023-05-25T01:01:26.664Z,29.75
2023-05-25T01:03:54.680Z,19.27
2023-05-25T01:06:24.677Z,21.45
2023-05-25T01:09:00.966Z,28.08
2023-05-25T01:11:37.152Z,25.30
2023-05-25T01:14:04.795Z,24.15
2023-05-25T01:16:32.791Z,24.48
2023-05-25T01:19:01.673Z,30.38
2023-05-25T01:21:32.207Z,31.30
2023-05-25T01:24:05.112Z,25.48
2023-05-25T01:26:36.487Z,22.80
2023-05-25T01:29:04.693Z,31.17
2023-05-25T01:31:42.600Z,23.10
2023-05-25T01:34:10.548Z,29.55
2023-05-25T01:36:37.985Z,25.63
2023-05-25T01:39:06.752Z,27.58
2023-05-25T01:41:34.322Z,23.10
2023-05-25T01:44:04.326Z,24.95
2023-05-25T01:46:35.922Z,29.80
2023-05-25T01:49:16.990Z,25.80
2023-05-25T01:52:03.266Z,28.40
2023-05-25T01:54:39.373Z,28.23
2023-05-25T01:57:08.501Z,26.92
2023-05-25T01:59:42.521Z,26.40
2023-05-25T02:02:10.507Z,23.30
2023-05-25T02:04:38.437Z,33.30
2023-05-25T02:07:05.999Z,26.55
2023-05-25T02:09:33.492Z,28.02
2023-05-25T02:12:01.274Z,35.17
2023-05-25T02:14:28.779Z,28.70
2023-05-25T02:16:57.949Z,27.55
2023-05-25T02:19:25.304Z,22.80
2023-05-25T02:21:55.910Z,29.48
2023-05-25T02:24:31.384Z,28.55
2023-05-25T02:26:59.021Z,22.30
2023-05-25T02:29:28.926Z,26.67
2023-05-25T02:31:56.697Z,22.75
2023-05-25T02:34:27.148Z,27.02
2023-05-25T02:36:54.622Z,28.38
2023-05-25T02:39:28.013Z,32.85
2023-05-25T02:41:55.496Z,24.60
2023-05-25T02:44:23.143Z,28.55
2023-05-25T02:46:50.686Z,26.80
2023-05-25T02:49:21.222Z,22.20
2023-05-25T02:51:48.741Z,25.33
2023-05-25T02:54:17.314Z,21.98
2023-05-25T02:56:47.422Z,27.58
2023-05-25T02:59:14.780Z,22.90
2023-05-25T03:01:42.268Z,25.38
2023-05-25T03:04:12.288Z,26.25
2023-05-25T03:06:39.758Z,24.85
2023-05-25T03:09:13.422Z,20.77
2023-05-25T03:11:43.683Z,28.38
2023-05-25T03:14:11.659Z,28.70
2023-05-25T03:16:42.200Z,29.42
2023-05-25T03:19:10.875Z,25.85
2023-05-25T03:25:17.682Z,25.23
2023-05-25T03:27:45.157Z,32.55
2023-05-25T03:30:12.949Z,32.10
2023-05-25T03:32:40.822Z,31.23
2023-05-25T03:35:08.482Z,37.30
2023-05-25T03:37:38.517Z,33.75
2023-05-25T03:40:09.339Z,31.40
2023-05-25T03:42:37.524Z,33.70
2023-05-25T03:45:09.291Z,33.63
2023-05-25T03:47:37.386Z,42.13
2023-05-25T03:50:07.174Z,32.97
2023-05-25T03:52:34.998Z,32.90
2023-05-25T03:55:04.690Z,33.45
2023-05-25T03:57:32.325Z,31.65
2023-05-25T03:59:59.898Z,31.85
2023-05-25T04:02:27.500Z,31.27
2023-05-25T04:04:56.791Z,27.48
2023-05-25T04:07:24.297Z,26.08
2023-05-25T04:09:53.894Z,26.60
2023-05-25T04:12:29.857Z,29.75
2023-05-25T04:14:57.253Z,29.08
2023-05-25T04:17:27.491Z,34.70
2023-05-25T04:19:55.105Z,31.08
2023-05-25T04:22:24.377Z,27.05
2023-05-25T04:24:51.927Z,25.48
2023-05-25T04:27:22.792Z,28.30
2023-05-25T04:29:50.907Z,32.80
2023-05-25T04:32:21.493Z,32.25
2023-05-25T04:34:49.022Z,29.45
2023-05-25T04:37:17.321Z,32.13
2023-05-25T04:39:44.701Z,26.88
2023-05-25T04:42:27.039Z,29.98
2023-05-25T04:44:56.051Z,28.65
2023-05-25T04:47:25.340Z,27.70
2023-05-25T04:49:53.041Z,27.00
2023-05-25T04:52:20.609Z,26.58
2023-05-25T04:54:48.409Z,25.05
2023-05-25T04:57:18.085Z,24.77
2023-05-25T04:59:46.043Z,23.15
2023-05-25T05:02:13.573Z,28.63
2023-05-25T05:05:14.889Z,24.08
2023-05-25T05:07:59.839Z,31.00
2023-05-25T05:11:04.063Z,27.85
2023-05-25T05:16:36.099Z,26.75
2023-05-25T05:19:11.646Z,26.02
2023-05-25T05:21:58.194Z,23.80
2023-05-25T05:25:04.738Z,20.77
2023-05-25T05:27:43.699Z,20.88
2023-05-25T05:30:57.666Z,21.67
2023-05-25T05:33:41.525Z,21.67
2023-05-25T05:42:25.943Z,21.90
2023-05-25T06:03:54.607Z,24.83
2023-05-25T06:13:12.356Z,15.65
2023-05-25T06:19:26.825Z,17.55
2023-05-25T06:35:47.325Z,16.05
2023-05-25T06:38:14.961Z,15.65
2023-05-25T06:40:45.907Z,13.15
2023-05-25T06:43:14.837Z,14.68
2023-05-25T06:45:42.243Z,13.27
2023-05-25T06:48:15.337Z,14.27
2023-05-25T06:50:43.243Z,12.40
2023-05-25T06:53:11.453Z,12.38
2023-05-25T06:55:38.818Z,14.57
2023-05-25T06:58:06.145Z,16.65
2023-05-25T07:00:33.530Z,11.35
2023-05-25T07:03:01.528Z,11.55
2023-05-25T07:05:29.264Z,12.13
2023-05-25T07:07:56.672Z,12.15
2023-05-25T07:10:24.165Z,12.80
2023-05-25T07:12:53.786Z,11.32
2023-05-25T07:15:48.505Z,13.52
2023-05-25T07:18:28.630Z,13.45
2023-05-25T07:29:11.277Z,14.68
2023-05-25T07:40:49.266Z,17.23
2023-05-25T07:44:11.392Z,10.95
2023-05-25T07:46:39.068Z,15.93
2023-05-25T07:49:15.157Z,12.35
2023-05-25T07:51:45.937Z,14.38
2023-05-25T07:54:13.301Z,11.15
2023-05-25T07:56:40.663Z,11.38
2023-05-25T07:59:08.033Z,16.02
2023-05-25T08:01:36.040Z,14.88
2023-05-25T08:04:03.391Z,10.38
2023-05-25T08:06:32.476Z,10.38
2023-05-25T08:08:59.820Z,12.18
2023-05-25T08:11:27.731Z,12.27
2023-05-25T08:13:55.147Z,11.45
2023-05-25T08:16:22.534Z,12.77
2023-05-25T08:18:49.928Z,15.70
2023-05-25T08:21:17.330Z,12.40
2023-05-25T08:23:44.799Z,12.75
2023-05-25T08:26:34.331Z,11.15
2023-05-25T08:29:02.553Z,13.93
2023-05-25T08:31:29.898Z,12.88
2023-05-25T08:33:57.281Z,16.58
2023-05-25T08:36:26.147Z,12.98
2023-05-25T08:38:57.504Z,11.90
2023-05-25T08:41:24.819Z,16.80
2023-05-25T08:43:55.198Z,13.48
2023-05-25T08:46:29.456Z,15.05
2023-05-25T08:49:02.151Z,12.18
2023-05-25T08:51:32.476Z,17.05
2023-05-25T08:54:00.660Z,15.65
2023-05-25T08:56:31.529Z,14.63
2023-05-25T08:59:04.835Z,12.18
2023-05-25T09:01:38.792Z,12.73
2023-05-25T09:04:06.377Z,15.73
2023-05-25T09:06:37.095Z,23.77
2023-05-25T09:09:05.650Z,20.50
2023-05-25T09:11:41.084Z,20.17
2023-05-25T09:14:10.076Z,25.08
2023-05-25T09:16:44.011Z,20.50
2023-05-25T09:19:13.410Z,27.08
2023-05-25T09:21:41.163Z,20.85
2023-05-25T09:24:08.962Z,24.55
2023-05-25T09:26:36.850Z,20.10
2023-05-25T09:29:04.690Z,21.75
2023-05-25T09:31:34.751Z,24.90
2023-05-25T09:34:02.423Z,22.42
2023-05-25T09:36:41.748Z,21.63
2023-05-25T09:42:20.139Z,21.38
2023-05-25T09:44:49.690Z,19.25
2023-05-25T09:47:27.307Z,18.00
2023-05-25T09:49:55.807Z,20.85
2023-05-25T09:52:28.289Z,20.85
2023-05-25T09:55:09.870Z,19.80
2023-05-25T10:17:10.002Z,19.15
2023-05-25T10:19:42.886Z,21.67
2023-05-25T10:22:25.683Z,15.52
2023-05-25T10:24:53.258Z,20.55
2023-05-25T10:27:27.578Z,26.58
2023-05-25T10:29:57.526Z,20.52
2023-05-25T10:32:25.222Z,20.33
2023-05-25T10:34:53.635Z,21.17
2023-05-25T10:37:21.709Z,19.67
2023-05-25T10:39:55.324Z,19.33
2023-05-25T10:42:28.507Z,20.55
2023-05-25T10:44:56.720Z,21.45
2023-05-25T10:47:30.100Z,17.13
2023-05-25T10:49:58.575Z,18.10
2023-05-25T10:52:32.090Z,14.85
2023-05-25T10:55:02.416Z,20.85
2023-05-25T10:57:29.752Z,15.27
2023-05-25T11:00:02.335Z,12.95
2023-05-25T11:54:16.410Z,10.50
2023-05-25T11:56:44.292Z,10.70
2023-05-25T12:05:26.051Z,9.30
2023-05-25T12:13:42.383Z,10.45
2023-05-25T12:16:10.199Z,8.35
2023-05-25T12:18:38.063Z,8.93
2023-05-25T12:21:11.135Z,5.25
2023-05-25T12:23:39.014Z,9.18
2023-05-25T12:26:14.268Z,8.80
2023-05-25T12:28:42.259Z,7.10
2023-05-25T12:31:29.535Z,6.60
2023-05-25T12:34:13.877Z,8.38
2023-05-25T12:36:44.539Z,5.70
2023-05-25T12:39:12.936Z,8.50
2023-05-25T12:41:47.757Z,10.27
2023-05-25T12:44:18.399Z,7.72
2023-05-25T12:46:46.017Z,7.97
2023-05-25T12:49:30.102Z,6.50
2023-05-25T12:51:57.752Z,8.77
2023-05-25T12:54:42.404Z,7.88
2023-05-25T12:57:12.428Z,8.05
2023-05-25T12:59:40.698Z,6.80
2023-05-25T13:02:12.529Z,8.98
2023-05-25T13:04:42.348Z,5.43
2023-05-25T13:07:10.501Z,11.27
2023-05-25T13:09:39.429Z,11.85
2023-05-25T13:12:10.001Z,12.88
2023-05-25T13:14:38.876Z,12.80
2023-05-25T13:17:11.465Z,13.02
2023-05-25T13:22:09.061Z,9.32
2023-05-25T13:24:36.638Z,12.00
2023-05-25T13:27:11.521Z,14.45
2023-05-25T13:29:38.962Z,9.75
2023-05-25T13:32:14.986Z,9.90
2023-05-25T13:34:46.313Z,10.20
2023-05-25T13:37:13.681Z,12.05
2023-05-25T13:39:43.516Z,11.25
2023-05-25T13:42:11.208Z,12.30
2023-05-25T13:44:38.968Z,11.25
2023-05-25T13:47:09.508Z,10.80
2023-05-25T13:49:37.052Z,11.52
2023-05-25T13:52:06.948Z,9.25
2023-05-25T13:54:34.392Z,10.88
2023-05-25T13:57:06.056Z,13.95
2023-05-25T14:02:02.447Z,7.95
2023-05-25T14:04:29.887Z,10.25
2023-05-25T14:06:57.653Z,9.50
2023-05-25T14:09:24.927Z,11.23
2023-05-25T14:11:53.513Z,10.13
2023-05-25T14:14:31.528Z,10.13
2023-05-25T14:17:00.615Z,8.57
2023-05-25T14:19:28.379Z,11.60
2023-05-25T14:24:45.611Z,9.60
2023-05-25T14:27:13.495Z,12.93
2023-05-25T14:29:41.122Z,8.50
2023-05-25T14:32:14.762Z,9.70
2023-05-25T14:34:48.404Z,10.45
2023-05-25T14:37:16.145Z,13.07
2023-05-25T14:39:44.441Z,8.48
2023-05-25T14:45:23.688Z,17.42
2023-05-25T14:54:44.482Z,8.30
2023-05-25T14:57:17.856Z,11.75
2023-05-25T14:59:55.368Z,16.10
2023-05-25T15:02:29.217Z,12.40
2023-05-25T15:08:14.253Z,8.52
2023-05-25T15:17:58.249Z,12.40
2023-05-25T16:05:17.608Z,11.55
2023-05-25T16:08:02.683Z,14.07
2023-05-25T16:10:34.600Z,14.93
2023-05-25T16:11:11.365Z,12.20
2023-05-25T16:13:09.018Z,17.08
2023-05-25T16:15:45.065Z,11.48
2023-05-25T16:18:16.799Z,11.07
2023-05-25T16:20:46.860Z,13.95
2023-05-25T16:23:16.504Z,9.07
2023-05-25T16:25:45.915Z,11.13
2023-05-25T16:35:24.374Z,13.90
2023-05-25T16:37:51.780Z,10.98
2023-05-25T16:40:20.541Z,12.45
2023-05-25T16:43:09.811Z,11.20
2023-05-25T16:45:48.277Z,9.20
2023-05-25T16:52:33.456Z,17.10
2023-05-25T17:01:17.022Z,16.05
2023-05-25T17:03:45.657Z,11.95
2023-05-25T17:06:16.253Z,13.25
2023-05-25T17:09:00.662Z,11.65
2023-05-25T17:11:28.330Z,19.48
2023-05-25T17:20:30.542Z,16.60
2023-05-25T17:22:41.883Z,14.10
2023-05-25T17:25:16.086Z,20.02
2023-05-25T17:28:02.580Z,16.30
2023-05-25T17:30:30.005Z,13.95
2023-05-25T17:33:01.777Z,14.68
2023-05-25T17:35:29.584Z,17.50
2023-05-25T17:37:57.534Z,13.48
2023-05-25T17:40:25.545Z,14.30
2023-05-25T17:42:53.340Z,14.98
2023-05-25T17:45:20.988Z,15.55
2023-05-25T17:47:48.487Z,15.05
2023-05-25T17:50:16.822Z,13.75
2023-05-25T17:52:44.575Z,14.20
2023-05-25T17:55:11.980Z,15.70
2023-05-25T17:57:42.273Z,13.57
2023-05-25T18:00:10.053Z,12.82
2023-05-25T18:02:37.909Z,11.27
2023-05-25T18:05:05.604Z,12.23
2023-05-25T18:07:33.054Z,15.90
2023-05-25T18:10:00.403Z,10.55
2023-05-25T18:12:27.774Z,16.90
2023-05-25T18:14:57.473Z,17.35
2023-05-25T18:17:28.359Z,15.60
2023-05-25T18:19:56.017Z,18.85
2023-05-25T18:22:23.452Z,22.80
2023-05-25T18:24:50.919Z,16.17
2023-05-25T18:27:18.458Z,23.05
2023-05-25T18:29:46.260Z,15.80
2023-05-25T18:32:13.708Z,18.52
2023-05-25T18:34:41.481Z,22.23
2023-05-25T18:37:08.931Z,25.15
2023-05-25T18:39:36.315Z,20.58
2023-05-25T18:42:03.782Z,21.42
2023-05-25T18:44:31.245Z,26.02
2023-05-25T18:46:58.918Z,18.48
2023-05-25T18:49:32.909Z,20.00
2023-05-25T18:52:01.115Z,21.90
2023-05-25T18:54:29.774Z,11.55
2023-05-25T18:56:57.526Z,16.35
2023-05-25T18:59:24.932Z,23.60
2023-05-25T19:01:52.314Z,15.20
2023-05-25T19:04:19.900Z,23.73
2023-05-25T19:06:47.561Z,15.30
2023-05-25T19:09:14.941Z,17.73
2023-05-25T19:11:42.340Z,22.23
2023-05-25T19:14:09.679Z,20.02
2023-05-25T19:16:37.224Z,22.95
2023-05-25T19:19:04.691Z,24.35
2023-05-25T19:21:32.195Z,25.42
2023-05-25T19:23:59.511Z,21.20
2023-05-25T19:26:27.588Z,20.35
2023-05-25T19:28:55.053Z,19.80
2023-05-25T19:31:23.745Z,18.70
2023-05-25T19:33:51.132Z,16.33
2023-05-25T19:36:18.380Z,21.73
2023-05-25T19:38:46.355Z,18.55
2023-05-25T19:41:13.917Z,25.13
2023-05-25T19:43:41.860Z,27.08
2023-05-25T19:46:09.354Z,22.65
2023-05-25T19:48:36.917Z,22.05
2023-05-25T19:51:04.377Z,22.92
2023-05-25T19:53:31.799Z,23.00
2023-05-25T19:55:59.430Z,19.58
2023-05-25T19:58:26.810Z,25.15
2023-05-25T20:00:54.227Z,24.73
2023-05-25T20:03:21.671Z,17.50
2023-05-25T20:05:49.132Z,24.35
2023-05-25T20:08:16.592Z,23.75
2023-05-25T20:10:45.292Z,26.60
2023-05-25T20:13:12.766Z,22.25
2023-05-25T20:15:40.130Z,20.20
2023-05-25T20:18:07.660Z,24.90
2023-05-25T20:20:43.568Z,20.33
2023-05-25T20:23:14.370Z,19.02
2023-05-25T20:25:41.803Z,16.58
2023-05-25T20:28:09.198Z,23.00
2023-05-25T20:30:36.530Z,30.63
2023-05-25T20:33:03.963Z,22.90
2023-05-25T20:35:31.383Z,19.08
2023-05-25T20:37:59.687Z,21.13
2023-05-25T20:40:27.422Z,26.83
2023-05-25T20:42:54.705Z,26.40
2023-05-25T20:45:22.113Z,27.25
2023-05-25T20:47:58.743Z,18.88
2023-05-25T20:50:26.392Z,17.40
2023-05-25T20:52:54.061Z,21.02
2023-05-25T20:55:21.698Z,19.98
2023-05-25T20:57:49.095Z,21.33
2023-05-25T21:00:16.674Z,26.42
2023-05-25T21:02:49.392Z,23.80
2023-05-25T21:05:17.478Z,21.65
2023-05-25T21:07:44.816Z,25.50
2023-05-25T21:10:12.126Z,24.02
2023-05-25T21:12:42.726Z,23.00
2023-05-25T21:15:10.231Z,19.20
2023-05-25T21:17:37.692Z,21.92
2023-05-25T21:20:05.357Z,20.25
2023-05-25T21:22:32.712Z,21.00
2023-05-25T21:25:00.014Z,26.90
2023-05-25T21:27:27.324Z,19.50
2023-05-25T21:29:55.095Z,16.65
2023-05-25T21:32:22.473Z,16.92
2023-05-25T21:34:49.890Z,21.50
2023-05-25T21:37:17.268Z,25.02
2023-05-25T21:39:44.954Z,19.70
2023-05-25T21:42:12.328Z,31.30
2023-05-25T21:44:42.220Z,31.77
2023-05-25T21:47:09.597Z,21.35
2023-05-25T21:49:38.116Z,17.17
2023-05-25T21:52:05.541Z,20.02
2023-05-25T21:54:36.659Z,26.50
2023-05-25T21:57:04.353Z,31.67
2023-05-25T21:59:31.856Z,21.83
2023-05-25T22:01:59.421Z,24.85
2023-05-25T22:04:27.057Z,29.75
2023-05-25T22:06:56.930Z,27.80
2023-05-25T22:09:24.637Z,26.30
2023-05-25T22:11:51.968Z,24.63
2023-05-25T22:14:19.370Z,24.90
2023-05-25T22:16:46.720Z,24.77
2023-05-25T22:19:14.047Z,23.05
2023-05-25T22:21:41.408Z,33.70
2023-05-25T22:24:08.681Z,20.63
2023-05-25T22:26:36.006Z,28.00
2023-05-25T22:29:03.305Z,29.25
2023-05-25T22:31:30.742Z,25.48
2023-05-25T22:33:58.042Z,25.95
2023-05-25T22:36:25.428Z,18.10
2023-05-25T22:38:52.674Z,31.15
2023-05-25T22:41:19.983Z,25.30
2023-05-25T22:43:47.375Z,26.63
2023-05-25T22:46:14.699Z,28.40
2023-05-25T22:48:43.650Z,21.02
2023-05-25T22:51:11.019Z,31.10
2023-05-25T22:53:38.376Z,26.80
2023-05-25T22:56:05.768Z,26.67
2023-05-25T22:58:33.135Z,26.48
2023-05-25T23:01:00.442Z,27.67
2023-05-25T23:03:28.033Z,27.95
2023-05-25T23:05:55.619Z,32.90
2023-05-25T23:08:23.207Z,30.98
2023-05-25T23:10:50.507Z,23.88
2023-05-25T23:13:19.342Z,32.78
2023-05-25T23:15:47.683Z,27.60
2023-05-25T23:18:15.298Z,23.88
2023-05-25T23:20:43.004Z,29.10
2023-05-25T23:23:10.579Z,22.63
2023-05-25T23:25:37.913Z,36.00
2023-05-25T23:28:05.194Z,26.73
2023-05-25T23:30:32.454Z,28.70
2023-05-25T23:33:00.749Z,21.60
2023-05-25T23:35:28.766Z,35.45
2023-05-25T23:37:57.725Z,29.48
2023-05-25T23:40:25.109Z,35.20
2023-05-25T23:42:52.728Z,36.35
2023-05-25T23:45:20.089Z,32.97
2023-05-25T23:47:47.600Z,30.65
2023-05-25T23:50:14.960Z,27.73
2023-05-25T23:52:42.482Z,30.23
2023-05-25T23:55:09.838Z,20.77
2023-05-25T23:57:37.176Z,33.58
